Time;durP1;ratioP1;P1;durP2;ratioP2;P2;SDS_P1;SDS_P2;PMS_P1;PMS_P2;Temp;Humidity;BMP_temperature;BMP_pressure;BME280_temperature;BME280_humidity;BME280_pressure;Samples;Min_cycle;Max_cycle;Signal;HPM_P1;HPM_P2
2024/01/15 00:00:23;;;;;;;41.13;14.05;;;-0.10;99.90;;;;;;5062245;28;20021;-75
2024/01/15 00:02:49;;;;;;;41.20;14.82;;;-0.10;99.90;;;;;;5063116;28;20310;-76
2024/01/15 00:05:14;;;;;;;43.47;16.00;;;0.00;99.90;;;;;;5042921;28;20052;-74
2024/01/15 00:07:40;;;;;;;48.75;17.60;;;0.00;99.90;;;;;;5045926;28;20233;-73
2024/01/15 00:10:06;;;;;;;40.03;15.00;;;0.10;99.90;;;;;;5043819;28;20036;-74
2024/01/15 00:12:31;;;;;;;45.00;15.20;;;0.10;99.90;;;;;;5059832;28;20025;-74
2024/01/15 00:14:58;;;;;;;43.28;15.68;;;0.10;99.90;;;;;;5059067;28;20031;-73
2024/01/15 00:17:23;;;;;;;46.72;15.73;;;0.10;99.90;;;;;;5057221;28;20284;-74
2024/01/15 00:19:49;;;;;;;24.13;10.70;;;-0.10;99.90;;;;;;5044225;28;20309;-74
2024/01/15 00:22:15;;;;;;;41.53;15.25;;;-0.20;99.90;;;;;;5040919;28;20037;-74
2024/01/15 00:24:40;;;;;;;65.60;21.08;;;0.10;99.90;;;;;;5055850;28;20071;-73
2024/01/15 00:27:06;;;;;;;45.42;16.25;;;-0.30;99.90;;;;;;5034924;28;20128;-73
2024/01/15 00:29:33;;;;;;;50.42;17.60;;;-0.30;99.90;;;;;;5056628;28;20114;-74
2024/01/15 00:31:58;;;;;;;66.32;19.48;;;-0.10;99.90;;;;;;5057961;28;20029;-74
2024/01/15 00:34:24;;;;;;;55.05;19.50;;;-0.40;99.90;;;;;;5062074;28;20309;-75
2024/01/15 00:36:50;;;;;;;52.83;19.25;;;-0.30;99.90;;;;;;5059600;28;20032;-74
2024/01/15 00:39:16;;;;;;;58.47;17.35;;;0.00;99.90;;;;;;5043372;28;20401;-74
2024/01/15 00:41:42;;;;;;;54.08;18.67;;;-0.40;99.90;;;;;;5061202;28;20025;-74
2024/01/15 00:44:08;;;;;;;69.03;20.23;;;-0.50;99.90;;;;;;5061223;28;20079;-75
2024/01/15 00:46:40;;;;;;;59.25;16.58;;;-0.50;99.90;;;;;;5060619;28;20041;-76
2024/01/15 00:49:06;;;;;;;67.63;20.15;;;-0.60;99.90;;;;;;5061669;28;20301;-75
2024/01/15 00:51:31;;;;;;;78.28;22.92;;;-0.60;99.90;;;;;;5043281;28;20092;-75
2024/01/15 00:53:57;;;;;;;72.40;20.05;;;-0.70;99.90;;;;;;5043666;28;20044;-75
2024/01/15 00:56:23;;;;;;;73.80;23.17;;;-0.60;99.90;;;;;;5034843;28;20060;-75
2024/01/15 00:58:48;;;;;;;82.50;23.85;;;-0.60;99.90;;;;;;5050102;28;20400;-76
2024/01/15 01:01:14;;;;;;;76.63;22.02;;;-0.40;99.90;;;;;;5050488;28;20528;-76
2024/01/15 01:03:40;;;;;;;55.00;20.15;;;-0.60;99.90;;;;;;5023846;28;20030;-76
2024/01/15 01:06:05;;;;;;;58.97;18.67;;;-0.70;99.90;;;;;;5031897;28;20041;-76
2024/01/15 01:08:31;;;;;;;79.88;23.90;;;-0.70;99.90;;;;;;5051017;28;20017;-75
2024/01/15 01:10:56;;;;;;;73.82;20.38;;;-0.70;99.90;;;;;;5051299;28;20025;-75
2024/01/15 01:13:22;;;;;;;56.72;17.70;;;-0.70;99.90;;;;;;5051000;28;20291;-75
2024/01/15 01:15:48;;;;;;;73.82;23.10;;;-0.80;99.90;;;;;;5032760;28;20028;-75
2024/01/15 01:18:13;;;;;;;74.38;21.25;;;-0.70;99.90;;;;;;5050935;28;20488;-75
2024/01/15 01:20:39;;;;;;;50.33;16.52;;;-0.90;99.90;;;;;;5051131;28;20355;-75
2024/01/15 01:23:05;;;;;;;48.67;15.80;;;-0.90;99.90;;;;;;5049456;28;20134;-76
2024/01/15 01:25:30;;;;;;;72.93;23.08;;;-0.90;99.90;;;;;;5032992;28;20033;-75
2024/01/15 01:27:56;;;;;;;71.10;23.27;;;-1.00;99.90;;;;;;5032681;28;20025;-75
2024/01/15 01:30:21;;;;;;;65.18;19.73;;;-1.00;99.90;;;;;;5050814;28;20029;-77
2024/01/15 01:32:47;;;;;;;67.55;22.17;;;-0.80;99.90;;;;;;5032483;28;20028;-75
2024/01/15 01:35:13;;;;;;;54.55;19.20;;;-0.50;99.90;;;;;;5032569;28;20095;-75
2024/01/15 01:37:38;;;;;;;70.80;23.25;;;-1.00;99.90;;;;;;5050560;28;20553;-76
2024/01/15 01:40:05;;;;;;;76.25;22.15;;;-0.60;99.90;;;;;;5035101;28;20546;-75
2024/01/15 01:42:31;;;;;;;66.97;19.08;;;-1.00;99.90;;;;;;5054258;28;20773;-75
2024/01/15 01:44:56;;;;;;;74.82;21.08;;;-0.90;99.90;;;;;;5033725;28;20033;-75
2024/01/15 01:47:22;;;;;;;50.97;15.10;;;-1.00;99.90;;;;;;5050551;28;20039;-75
2024/01/15 01:49:48;;;;;;;62.50;19.92;;;-1.00;99.90;;;;;;5053753;28;20191;-74
2024/01/15 01:52:14;;;;;;;66.40;21.65;;;-0.90;99.90;;;;;;5039870;28;20250;-75
2024/01/15 01:54:41;;;;;;;68.07;21.42;;;-1.00;99.90;;;;;;5053464;28;20021;-75
2024/01/15 01:57:08;;;;;;;59.42;17.52;;;-1.00;99.90;;;;;;5049929;28;20375;-75
2024/01/15 01:59:35;;;;;;;63.00;19.17;;;-1.00;99.90;;;;;;5032004;28;20025;-75
2024/01/15 02:02:03;;;;;;;55.42;18.67;;;-1.10;99.90;;;;;;5049913;28;20036;-75
2024/01/15 02:04:31;;;;;;;56.45;16.92;;;-1.10;99.90;;;;;;5049405;28;20104;-75
2024/01/15 02:06:56;;;;;;;53.88;16.85;;;-0.80;99.90;;;;;;5049877;28;20486;-75
2024/01/15 02:09:22;;;;;;;49.38;15.80;;;-1.10;99.90;;;;;;5049894;28;20029;-75
2024/01/15 02:11:48;;;;;;;58.55;16.90;;;-2.10;99.90;;;;;;5049514;28;20033;-75
2024/01/15 02:14:14;;;;;;;62.03;18.75;;;-1.20;99.90;;;;;;5049704;28;20067;-75
2024/01/15 02:16:39;;;;;;;49.38;14.77;;;-1.40;99.90;;;;;;5049935;28;20027;-76
2024/01/15 02:19:05;;;;;;;43.65;15.20;;;-1.40;99.90;;;;;;5047985;28;20048;-75
2024/01/15 02:21:34;;;;;;;32.03;11.95;;;-1.10;99.90;;;;;;5029883;28;20044;-75
2024/01/15 02:23:59;;;;;;;31.75;11.75;;;-1.20;99.90;;;;;;5048249;28;20021;-75
2024/01/15 02:26:26;;;;;;;43.08;15.73;;;-1.30;99.90;;;;;;5047650;28;20509;-75
2024/01/15 02:28:52;;;;;;;44.80;15.15;;;-1.20;99.90;;;;;;5047828;28;20051;-75
2024/01/15 02:31:17;;;;;;;51.50;16.83;;;-1.10;99.90;;;;;;5047924;28;20025;-74
2024/01/15 02:33:45;;;;;;;53.17;16.95;;;-1.10;99.90;;;;;;5047309;28;20017;-76
2024/01/15 02:36:11;;;;;;;37.17;13.55;;;-1.10;99.90;;;;;;5049669;28;20021;-76
2024/01/15 02:38:37;;;;;;;36.80;13.48;;;-0.60;99.90;;;;;;5049539;28;20047;-76
2024/01/15 02:41:03;;;;;;;37.35;9.85;;;-0.90;99.90;;;;;;5031939;28;20112;-75
2024/01/15 02:43:28;;;;;;;41.55;15.63;;;-0.80;99.90;;;;;;5049364;28;20025;-76
2024/01/15 02:45:54;;;;;;;41.40;12.10;;;-0.60;99.90;;;;;;5048254;28;20107;-74
2024/01/15 02:48:20;;;;;;;38.13;13.93;;;-0.30;99.90;;;;;;5049386;28;20070;-76
2024/01/15 02:50:45;;;;;;;46.88;15.82;;;-0.50;99.90;;;;;;5049539;28;20048;-75
2024/01/15 02:53:11;;;;;;;46.70;15.70;;;-0.40;99.90;;;;;;5031366;28;20021;-75
2024/01/15 02:55:36;;;;;;;42.30;15.27;;;-0.30;99.90;;;;;;5048968;28;20021;-75
2024/01/15 02:58:04;;;;;;;34.85;12.90;;;-0.30;99.90;;;;;;5049477;28;20173;-75
2024/01/15 03:00:29;;;;;;;47.17;14.95;;;0.00;99.90;;;;;;5049257;28;20087;-76
2024/01/15 03:02:55;;;;;;;53.78;18.52;;;-0.20;99.90;;;;;;5047635;28;20029;-76
2024/01/15 03:05:20;;;;;;;32.03;11.85;;;-0.20;99.90;;;;;;5048996;28;20102;-75
2024/01/15 03:07:46;;;;;;;50.78;16.00;;;-0.10;99.90;;;;;;5042803;28;20071;-76
2024/01/15 03:10:12;;;;;;;42.80;13.77;;;-0.10;99.90;;;;;;5031251;28;20112;-75
2024/01/15 03:12:37;;;;;;;44.25;15.82;;;-0.10;99.90;;;;;;5048728;28;20036;-75
2024/01/15 03:15:03;;;;;;;46.33;14.43;;;0.10;99.90;;;;;;5049263;28;20029;-75
2024/01/15 03:17:29;;;;;;;45.33;16.90;;;-0.10;99.90;;;;;;5049327;28;20215;-75
2024/01/15 03:19:55;;;;;;;49.25;16.52;;;-0.10;99.90;;;;;;5031273;28;20456;-75
2024/01/15 03:22:20;;;;;;;55.00;16.40;;;-0.10;99.90;;;;;;5031022;28;20393;-75
2024/01/15 03:24:46;;;;;;;44.85;14.23;;;-0.10;99.90;;;;;;5048831;28;20468;-75
2024/01/15 03:27:12;;;;;;;41.75;14.93;;;-0.10;99.90;;;;;;5048728;28;20036;-75
2024/01/15 03:29:37;;;;;;;42.95;14.38;;;-0.10;99.90;;;;;;5048827;28;20036;-75
2024/01/15 03:32:03;;;;;;;34.72;12.02;;;-0.10;99.90;;;;;;5049031;28;20567;-75
2024/01/15 03:34:29;;;;;;;36.90;12.45;;;-0.10;99.90;;;;;;5048968;28;20025;-75
2024/01/15 03:36:54;;;;;;;37.78;12.68;;;0.00;99.90;;;;;;5049437;28;20389;-76
2024/01/15 03:39:20;;;;;;;31.75;12.38;;;0.00;99.90;;;;;;5049075;28;20474;-75
2024/01/15 03:41:45;;;;;;;50.28;14.50;;;-0.10;99.90;;;;;;5048392;28;20036;-76
2024/01/15 03:44:11;;;;;;;45.00;13.88;;;0.00;99.90;;;;;;5048838;28;20028;-75
2024/01/15 03:46:37;;;;;;;39.08;13.40;;;-0.10;99.90;;;;;;5051226;28;20514;-75
2024/01/15 03:49:03;;;;;;;39.63;14.35;;;0.00;99.90;;;;;;5034674;28;20027;-75
2024/01/15 03:51:28;;;;;;;34.65;11.70;;;0.00;99.90;;;;;;5052600;28;20032;-76
2024/01/15 03:53:54;;;;;;;39.17;13.93;;;0.00;99.90;;;;;;5034481;28;20021;-75
2024/01/15 03:56:19;;;;;;;35.33;12.82;;;0.00;99.90;;;;;;5052124;28;20100;-75
2024/01/15 03:58:45;;;;;;;44.72;14.85;;;0.20;99.90;;;;;;5052212;28;20027;-75
2024/01/15 04:01:14;;;;;;;37.58;14.13;;;0.00;99.90;;;;;;5034285;28;20056;-75
2024/01/15 04:03:40;;;;;;;51.05;13.63;;;0.00;99.90;;;;;;5034305;28;20485;-75
2024/01/15 04:06:05;;;;;;;40.45;14.65;;;0.00;99.90;;;;;;5052184;28;20044;-74
2024/01/15 04:08:31;;;;;;;46.20;15.27;;;0.00;99.90;;;;;;5052572;28;20067;-75
2024/01/15 04:10:57;;;;;;;43.05;16.10;;;-0.10;99.90;;;;;;5052922;28;20029;-75
2024/01/15 04:13:22;;;;;;;39.97;14.52;;;-0.10;99.90;;;;;;5052178;28;20017;-75
2024/01/15 04:15:48;;;;;;;45.58;16.75;;;0.00;99.90;;;;;;5052130;28;20497;-75
2024/01/15 04:18:17;;;;;;;45.33;14.30;;;0.00;99.90;;;;;;5050550;28;20263;-75
2024/01/15 04:20:43;;;;;;;37.83;15.40;;;0.00;99.90;;;;;;5034210;28;20025;-76
2024/01/15 04:23:09;;;;;;;41.25;14.50;;;0.00;99.90;;;;;;5052069;28;20094;-76
2024/01/15 04:25:35;;;;;;;40.25;13.40;;;0.00;99.90;;;;;;5051927;28;20175;-76
2024/01/15 04:28:01;;;;;;;36.30;12.45;;;0.00;99.90;;;;;;5034091;28;20074;-75
2024/01/15 04:30:26;;;;;;;32.70;11.30;;;-0.10;99.90;;;;;;5033904;28;20029;-76
2024/01/15 04:32:52;;;;;;;35.90;12.60;;;0.00;99.90;;;;;;5051622;28;20029;-75
2024/01/15 04:35:17;;;;;;;40.00;13.20;;;0.00;99.90;;;;;;5033541;28;20047;-75
2024/01/15 04:37:43;;;;;;;34.47;11.70;;;0.10;99.90;;;;;;5051489;28;20558;-75
2024/01/15 04:40:09;;;;;;;34.05;10.93;;;0.20;99.90;;;;;;5033768;28;20083;-75
2024/01/15 04:42:35;;;;;;;31.25;10.50;;;0.00;99.90;;;;;;5033215;28;20075;-76
2024/01/15 04:45:01;;;;;;;41.45;13.43;;;0.20;99.90;;;;;;5051792;28;20024;-76
2024/01/15 04:47:26;;;;;;;28.80;11.40;;;0.10;99.90;;;;;;5035684;28;20029;-75
2024/01/15 04:49:52;;;;;;;27.45;10.48;;;0.00;99.90;;;;;;5035866;28;20543;-76
2024/01/15 04:52:18;;;;;;;25.17;10.93;;;0.00;99.90;;;;;;5033150;28;20043;-76
2024/01/15 04:54:43;;;;;;;35.60;12.02;;;0.00;99.90;;;;;;5050760;28;20020;-75
2024/01/15 04:57:09;;;;;;;32.53;11.68;;;0.00;99.90;;;;;;5031801;28;20256;-76
2024/01/15 04:59:35;;;;;;;39.72;12.02;;;0.00;99.90;;;;;;5051723;28;20485;-74
2024/01/15 05:02:00;;;;;;;31.10;11.55;;;-0.10;99.90;;;;;;5051785;28;20508;-76
2024/01/15 05:04:26;;;;;;;29.17;10.90;;;0.00;99.90;;;;;;5049939;28;20079;-75
2024/01/15 05:06:51;;;;;;;27.40;10.90;;;0.00;99.90;;;;;;5050903;28;20452;-77
2024/01/15 05:09:17;;;;;;;25.02;9.70;;;0.10;99.90;;;;;;5049822;28;20029;-76
2024/01/15 05:11:43;;;;;;;25.58;8.95;;;0.10;99.90;;;;;;5051534;28;20031;-75
2024/01/15 05:14:09;;;;;;;30.00;8.77;;;0.00;99.90;;;;;;5055206;28;20021;-76
2024/01/15 05:16:35;;;;;;;12.98;5.95;;;0.20;99.90;;;;;;5049706;28;20473;-75
2024/01/15 05:19:00;;;;;;;23.67;8.20;;;0.30;99.90;;;;;;5049960;28;20449;-77
2024/01/15 05:21:26;;;;;;;29.38;10.98;;;0.30;99.90;;;;;;5050562;28;20517;-76
2024/01/15 05:23:52;;;;;;;26.55;10.38;;;0.10;99.90;;;;;;5050168;28;20474;-76
2024/01/15 05:26:17;;;;;;;26.55;10.35;;;0.10;99.90;;;;;;5030413;28;20037;-76
2024/01/15 05:28:43;;;;;;;34.03;10.65;;;0.10;99.90;;;;;;5048975;28;20020;-76
2024/01/15 05:31:09;;;;;;;28.13;10.10;;;0.10;99.90;;;;;;5045253;28;20025;-77
2024/01/15 05:33:35;;;;;;;36.15;11.20;;;0.00;99.90;;;;;;5028425;28;20029;-76
2024/01/15 05:36:00;;;;;;;30.25;9.93;;;0.10;99.90;;;;;;5045981;28;20029;-76
2024/01/15 05:38:27;;;;;;;34.58;12.18;;;-0.10;99.90;;;;;;5045361;28;20081;-76
2024/01/15 05:40:53;;;;;;;31.55;12.60;;;-0.20;99.90;;;;;;5047586;28;20424;-76
2024/01/15 05:43:19;;;;;;;31.83;10.23;;;-0.30;99.90;;;;;;5045908;28;20490;-77
2024/01/15 05:45:45;;;;;;;50.85;16.08;;;-0.50;99.90;;;;;;5047570;28;20037;-76
2024/01/15 05:48:11;;;;;;;43.70;16.83;;;-0.60;99.90;;;;;;5049172;28;20025;-73
2024/01/15 05:50:36;;;;;;;43.63;15.15;;;-0.30;99.90;;;;;;5049912;28;20127;-74
2024/01/15 05:53:02;;;;;;;30.52;13.15;;;-0.60;99.90;;;;;;5050109;28;20462;-74
2024/01/15 05:55:28;;;;;;;50.38;10.48;;;-0.80;99.90;;;;;;5050524;28;20033;-75
2024/01/15 05:57:53;;;;;;;28.17;9.70;;;-0.80;99.90;;;;;;5049688;28;20605;-74
2024/01/15 06:00:19;;;;;;;28.70;10.57;;;-0.60;99.90;;;;;;5050193;28;20025;-72
2024/01/15 06:02:45;;;;;;;16.73;6.20;;;-0.70;99.90;;;;;;5050104;28;20017;-74
2024/01/15 06:05:11;;;;;;;24.20;9.23;;;-0.60;99.90;;;;;;5049914;28;20078;-75
2024/01/15 06:07:36;;;;;;;17.80;9.63;;;-0.60;99.90;;;;;;5049763;28;20151;-73
2024/01/15 06:10:04;;;;;;;27.25;9.32;;;-0.60;99.90;;;;;;5050140;28;20029;-75
2024/01/15 06:12:30;;;;;;;30.20;10.20;;;-0.60;99.90;;;;;;5049597;28;20110;-74
2024/01/15 06:14:56;;;;;;;26.05;9.48;;;-0.60;99.90;;;;;;5032246;28;20024;-74
2024/01/15 06:17:22;;;;;;;33.53;10.02;;;-0.60;99.90;;;;;;5032002;28;20061;-75
2024/01/15 06:19:47;;;;;;;30.33;9.75;;;-0.50;99.90;;;;;;5049745;28;20513;-75
2024/01/15 06:22:13;;;;;;;26.23;7.93;;;-0.50;99.90;;;;;;5049941;28;20168;-73
2024/01/15 06:24:39;;;;;;;30.98;11.23;;;-0.50;99.90;;;;;;5048650;28;20405;-73
2024/01/15 06:27:04;;;;;;;17.48;7.10;;;-0.50;99.90;;;;;;5050743;28;20181;-73
2024/01/15 06:29:30;;;;;;;18.88;7.72;;;-0.40;99.90;;;;;;5049560;28;20017;-74
2024/01/15 06:31:56;;;;;;;33.78;10.48;;;-0.50;99.90;;;;;;5048286;28;20059;-73
2024/01/15 06:34:21;;;;;;;20.98;8.32;;;-0.40;99.90;;;;;;5050363;28;20082;-74
2024/01/15 06:36:47;;;;;;;21.92;8.80;;;-0.50;99.90;;;;;;5049990;28;20091;-74
2024/01/15 06:39:13;;;;;;;26.25;9.43;;;-0.10;99.90;;;;;;5049719;28;20385;-76
2024/01/15 06:41:43;;;;;;;28.30;8.88;;;-0.40;99.90;;;;;;5049746;28;20358;-73
2024/01/15 06:44:12;;;;;;;36.63;11.15;;;-0.40;99.90;;;;;;5044743;28;20028;-76
2024/01/15 06:46:42;;;;;;;35.47;10.68;;;-0.50;99.90;;;;;;5049325;28;20047;-75
2024/01/15 06:49:08;;;;;;;19.08;7.15;;;-0.20;99.90;;;;;;5047495;28;20029;-74
2024/01/15 06:51:34;;;;;;;33.20;12.05;;;-0.30;99.90;;;;;;5048011;28;20032;-74
2024/01/15 06:54:00;;;;;;;30.05;10.32;;;-0.40;99.90;;;;;;5049447;28;20079;-75
2024/01/15 06:56:25;;;;;;;23.90;9.88;;;-0.40;99.90;;;;;;5049138;28;20021;-75
2024/01/15 06:58:51;;;;;;;22.58;10.15;;;-0.40;99.90;;;;;;5048107;28;20031;-74
2024/01/15 07:01:17;;;;;;;25.75;9.05;;;-0.30;99.90;;;;;;5049186;28;20479;-75
2024/01/15 07:03:42;;;;;;;35.63;10.40;;;-0.30;99.90;;;;;;5049331;28;20029;-75
2024/01/15 07:06:08;;;;;;;28.60;10.20;;;-0.30;99.90;;;;;;5049392;28;20256;-76
2024/01/15 07:08:33;;;;;;;28.92;9.20;;;-0.30;99.90;;;;;;5049402;28;20021;-76
2024/01/15 07:10:59;;;;;;;33.30;8.82;;;-0.30;99.90;;;;;;5048903;28;20028;-74
2024/01/15 07:13:25;;;;;;;26.70;10.40;;;-0.30;99.90;;;;;;5031260;28;20021;-74
2024/01/15 07:15:50;;;;;;;15.18;5.53;;;-0.10;99.90;;;;;;5049406;28;20040;-76
2024/01/15 07:18:16;;;;;;;29.85;9.60;;;-0.20;99.90;;;;;;5049307;28;20029;-74
2024/01/15 07:20:42;;;;;;;25.80;8.85;;;-0.10;99.90;;;;;;5050198;28;20036;-73
2024/01/15 07:23:08;;;;;;;25.00;7.25;;;-0.20;99.90;;;;;;5053095;28;20077;-74
2024/01/15 07:25:33;;;;;;;26.40;7.43;;;-0.20;99.90;;;;;;5052858;28;20527;-74
2024/01/15 07:27:59;;;;;;;28.15;10.00;;;-0.20;99.90;;;;;;5032046;28;20024;-74
2024/01/15 07:30:25;;;;;;;25.88;9.75;;;-0.20;99.90;;;;;;5051058;28;20389;-75
2024/01/15 07:32:52;;;;;;;23.88;8.93;;;-0.20;99.90;;;;;;5033904;28;20021;-76
2024/01/15 07:35:18;;;;;;;20.75;8.50;;;-0.20;99.90;;;;;;5031269;28;20031;-74
2024/01/15 07:37:44;;;;;;;27.33;9.32;;;-0.20;99.90;;;;;;5032305;28;20029;-76
2024/01/15 07:40:10;;;;;;;19.88;8.05;;;-0.20;99.90;;;;;;5032371;28;20030;-73
2024/01/15 07:42:36;;;;;;;11.80;5.30;;;-0.20;99.90;;;;;;5031864;28;20026;-73
2024/01/15 07:45:02;;;;;;;27.92;9.48;;;-0.20;99.90;;;;;;5026728;28;20433;-74
2024/01/15 07:47:28;;;;;;;23.48;7.55;;;-0.10;99.90;;;;;;5049225;28;20020;-72
2024/01/15 07:49:54;;;;;;;31.48;11.18;;;-0.10;99.90;;;;;;5052004;28;20060;-73
2024/01/15 07:52:20;;;;;;;26.15;9.40;;;-0.10;99.90;;;;;;5052727;28;20025;-73
2024/01/15 07:54:45;;;;;;;24.08;8.52;;;0.00;99.90;;;;;;5034004;28;20051;-74
2024/01/15 07:57:11;;;;;;;18.70;7.53;;;0.00;99.90;;;;;;5051601;28;20021;-72
2024/01/15 07:59:37;;;;;;;19.27;7.22;;;0.00;99.90;;;;;;5051418;28;20033;-72
2024/01/15 08:02:03;;;;;;;25.70;8.00;;;0.00;99.90;;;;;;5051941;28;20036;-72
2024/01/15 08:04:28;;;;;;;25.27;9.18;;;0.10;99.90;;;;;;5051410;28;20067;-77
2024/01/15 08:06:54;;;;;;;21.63;7.40;;;0.20;99.90;;;;;;5051829;28;20037;-74
2024/01/15 08:09:20;;;;;;;24.08;8.60;;;0.10;99.90;;;;;;5050653;28;20039;-73
2024/01/15 08:11:46;;;;;;;14.73;6.07;;;0.10;99.90;;;;;;5050699;28;20112;-72
2024/01/15 08:14:13;;;;;;;15.82;6.10;;;0.10;99.90;;;;;;5051442;28;20385;-74
2024/01/15 08:16:39;;;;;;;25.58;7.88;;;0.20;99.90;;;;;;5051607;28;20021;-74
2024/01/15 08:19:05;;;;;;;26.65;7.55;;;0.10;99.90;;;;;;5051767;28;20028;-74
2024/01/15 08:21:31;;;;;;;18.83;6.90;;;0.10;99.90;;;;;;5051344;28;20049;-74
2024/01/15 08:23:58;;;;;;;21.33;8.80;;;0.30;99.90;;;;;;5051159;28;20420;-73
2024/01/15 08:26:24;;;;;;;23.75;8.20;;;0.30;99.90;;;;;;5050963;28;20172;-72
2024/01/15 08:28:50;;;;;;;17.42;5.82;;;0.40;99.90;;;;;;5051103;28;20107;-74
2024/01/15 08:31:16;;;;;;;16.02;7.03;;;0.50;99.90;;;;;;5050005;28;20044;-74
2024/01/15 08:33:42;;;;;;;24.92;7.97;;;0.60;99.90;;;;;;5050921;28;20469;-74
2024/01/15 08:36:09;;;;;;;19.60;8.32;;;0.70;99.90;;;;;;5052254;28;20066;-75
2024/01/15 08:38:34;;;;;;;17.23;5.13;;;0.80;99.90;;;;;;5050494;28;20056;-72
2024/01/15 08:41:00;;;;;;;19.75;7.05;;;0.90;99.90;;;;;;5050701;28;20478;-73
2024/01/15 08:43:27;;;;;;;19.95;6.85;;;1.10;99.90;;;;;;5050907;28;20028;-74
2024/01/15 08:45:53;;;;;;;22.05;7.38;;;1.40;99.90;;;;;;5050953;28;20642;-73
2024/01/15 08:48:19;;;;;;;18.83;6.78;;;1.50;99.90;;;;;;5050927;28;20025;-74
2024/01/15 08:50:50;;;;;;;16.98;6.95;;;1.70;99.90;;;;;;5053490;28;20031;-72
2024/01/15 08:53:17;;;;;;;16.02;6.18;;;1.50;99.90;;;;;;5058052;28;20032;-73
2024/01/15 08:55:43;;;;;;;16.65;6.13;;;1.60;99.90;;;;;;5053524;28;20025;-77
2024/01/15 08:58:10;;;;;;;14.48;6.30;;;1.70;99.90;;;;;;5036449;28;20079;-73
2024/01/15 09:00:35;;;;;;;6.65;3.00;;;2.00;99.90;;;;;;5052183;28;20075;-75
2024/01/15 09:03:02;;;;;;;12.32;4.88;;;2.10;99.90;;;;;;5053738;28;20028;-73
2024/01/15 09:05:27;;;;;;;14.10;4.80;;;2.20;99.90;;;;;;5052369;28;20250;-75
2024/01/15 09:07:55;;;;;;;9.90;4.15;;;2.30;99.90;;;;;;5051594;28;20218;-73
2024/01/15 09:10:20;;;;;;;14.60;5.07;;;2.50;99.80;;;;;;5053845;28;20021;-73
2024/01/15 09:12:48;;;;;;;10.43;3.72;;;2.70;98.10;;;;;;5051460;28;20024;-74
2024/01/15 09:15:14;;;;;;;8.00;3.95;;;2.80;96.10;;;;;;5054324;28;20064;-73
2024/01/15 09:17:40;;;;;;;6.72;3.05;;;3.00;95.00;;;;;;5050266;28;20543;-76
2024/01/15 09:20:07;;;;;;;7.95;2.70;;;3.20;93.60;;;;;;5050254;28;20125;-74
2024/01/15 09:22:33;;;;;;;7.18;2.75;;;3.30;90.60;;;;;;5032251;28;20048;-72
2024/01/15 09:25:02;;;;;;;8.45;4.22;;;3.30;91.10;;;;;;5051221;28;20031;-72
2024/01/15 09:27:30;;;;;;;4.60;2.22;;;3.50;90.60;;;;;;5033398;28;20386;-72
2024/01/15 09:29:56;;;;;;;5.85;3.47;;;3.60;88.40;;;;;;5056686;28;20025;-75
2024/01/15 09:32:32;;;;;;;4.55;2.80;;;3.70;87.60;;;;;;5052597;28;20028;-72
2024/01/15 09:34:58;;;;;;;8.77;2.25;;;3.80;86.10;;;;;;5055395;28;20475;-73
2024/01/15 09:37:24;;;;;;;5.78;2.90;;;3.60;86.70;;;;;;5050157;28;20108;-74
2024/01/15 09:39:50;;;;;;;3.33;2.25;;;3.70;87.00;;;;;;5050135;28;20026;-74
2024/01/15 09:42:17;;;;;;;5.28;3.03;;;3.80;88.00;;;;;;5049133;28;20052;-73
2024/01/15 09:44:43;;;;;;;6.78;3.35;;;3.80;86.80;;;;;;5049486;28;20017;-74
2024/01/15 09:47:12;;;;;;;5.80;2.97;;;3.80;86.80;;;;;;5050200;28;20036;-72
2024/01/15 09:49:40;;;;;;;6.93;2.65;;;3.80;89.10;;;;;;5051005;28;20025;-73
2024/01/15 09:52:07;;;;;;;5.75;3.03;;;3.80;87.50;;;;;;5049703;28;20040;-74
2024/01/15 09:54:34;;;;;;;7.20;3.00;;;3.90;89.10;;;;;;5050595;28;20028;-70
2024/01/15 09:57:01;;;;;;;6.25;3.10;;;3.80;89.60;;;;;;5049451;28;20121;-74
2024/01/15 09:59:27;;;;;;;6.65;3.17;;;3.80;90.10;;;;;;5049450;28;20025;-73
2024/01/15 10:01:55;;;;;;;6.95;3.08;;;3.90;90.60;;;;;;5049501;28;20023;-72
2024/01/15 10:04:23;;;;;;;6.43;3.13;;;3.90;90.20;;;;;;5049496;28;20436;-73
2024/01/15 10:06:51;;;;;;;7.63;4.22;;;3.80;90.20;;;;;;5049307;28;20029;-72
2024/01/15 10:09:18;;;;;;;7.00;3.42;;;3.90;91.70;;;;;;5050117;28;20379;-73
2024/01/15 10:11:44;;;;;;;9.57;3.80;;;3.90;92.00;;;;;;5048818;28;20509;-73
2024/01/15 10:14:17;;;;;;;7.82;3.55;;;4.00;91.60;;;;;;5049394;28;20023;-73
2024/01/15 10:16:51;;;;;;;9.05;4.22;;;4.10;92.30;;;;;;5048909;28;20017;-73
2024/01/15 10:19:17;;;;;;;10.27;4.80;;;4.10;92.00;;;;;;5049277;28;20051;-72
2024/01/15 10:21:43;;;;;;;18.08;7.05;;;4.10;92.40;;;;;;5048964;28;20081;-74
2024/01/15 10:24:08;;;;;;;14.07;6.45;;;4.00;93.50;;;;;;5048895;28;20075;-72
2024/01/15 10:26:46;;;;;;;19.52;7.22;;;4.00;94.70;;;;;;5050405;28;20036;-73
2024/01/15 10:29:14;;;;;;;20.88;8.35;;;4.00;95.90;;;;;;5054553;28;20091;-73
2024/01/15 10:31:40;;;;;;;17.17;7.45;;;4.00;95.90;;;;;;5049080;28;20021;-71
2024/01/15 10:34:12;;;;;;;17.48;6.50;;;3.80;97.50;;;;;;5048773;28;20069;-72
2024/01/15 10:36:41;;;;;;;19.65;9.25;;;3.70;97.20;;;;;;5049294;28;20032;-71
2024/01/15 10:39:08;;;;;;;21.92;8.63;;;3.50;99.30;;;;;;5049002;28;20045;-72
2024/01/15 10:41:33;;;;;;;25.40;10.50;;;3.20;99.90;;;;;;5049363;28;20029;-71
2024/01/15 10:43:59;;;;;;;28.90;11.00;;;3.00;99.90;;;;;;5048609;28;20032;-73
2024/01/15 10:46:25;;;;;;;30.55;11.88;;;2.90;99.90;;;;;;5048759;28;20033;-71
2024/01/15 10:48:51;;;;;;;29.25;11.18;;;2.70;99.90;;;;;;5050201;28;20090;-71
2024/01/15 10:51:18;;;;;;;35.25;12.27;;;2.70;99.90;;;;;;5050207;28;20094;-69
2024/01/15 10:53:46;;;;;;;30.85;10.50;;;2.60;99.90;;;;;;5048530;28;20021;-70
2024/01/15 10:56:13;;;;;;;25.75;9.77;;;2.40;99.90;;;;;;5048072;28;20382;-69
2024/01/15 10:58:41;;;;;;;29.85;12.88;;;2.40;99.90;;;;;;5048829;28;20024;-70
2024/01/15 11:01:07;;;;;;;27.33;11.20;;;2.20;99.90;;;;;;5048562;28;20062;-70
2024/01/15 11:03:33;;;;;;;33.30;10.02;;;2.30;99.90;;;;;;5048708;28;20017;-71
2024/01/15 11:05:59;;;;;;;29.95;11.65;;;2.10;99.90;;;;;;5048626;28;20048;-71
2024/01/15 11:08:25;;;;;;;32.83;12.25;;;2.10;99.90;;;;;;5049089;28;20028;-72
2024/01/15 11:10:52;;;;;;;32.00;11.57;;;2.20;99.90;;;;;;5048403;28;20393;-72
2024/01/15 11:13:32;;;;;;;29.50;10.48;;;2.30;99.90;;;;;;5048455;28;20082;-70
2024/01/15 11:16:09;;;;;;;26.05;10.65;;;2.10;99.90;;;;;;5047268;28;20406;-70
2024/01/15 11:18:36;;;;;;;21.58;9.18;;;2.00;99.90;;;;;;5048733;28;20025;-73
2024/01/15 11:21:23;;;;;;;30.08;11.73;;;2.30;99.90;;;;;;5030257;28;20425;-71
2024/01/15 11:23:57;;;;;;;30.33;11.43;;;2.00;99.90;;;;;;5048235;28;20029;-71
2024/01/15 11:26:35;;;;;;;35.95;12.90;;;2.20;99.90;;;;;;5048510;28;20108;-71
2024/01/15 11:29:04;;;;;;;27.00;12.13;;;2.00;99.90;;;;;;5048518;28;20040;-71
2024/01/15 11:31:49;;;;;;;35.17;14.57;;;2.00;99.90;;;;;;5049004;28;20025;-72
2024/01/15 11:34:15;;;;;;;27.75;11.15;;;1.90;99.90;;;;;;5048946;28;20090;-68
2024/01/15 11:36:53;;;;;;;20.48;10.07;;;1.70;99.90;;;;;;5030224;28;20477;-71
2024/01/15 11:39:28;;;;;;;37.88;14.00;;;1.80;99.90;;;;;;5046324;28;20025;-72
2024/01/15 11:42:03;;;;;;;35.70;12.35;;;1.80;99.90;;;;;;5047740;28;20449;-71
2024/01/15 11:44:30;;;;;;;35.25;12.85;;;1.90;99.90;;;;;;5048422;28;20318;-75
2024/01/15 11:47:12;;;;;;;40.45;14.52;;;1.80;99.90;;;;;;5049126;28;20128;-72
2024/01/15 11:49:40;;;;;;;40.30;12.43;;;1.80;99.90;;;;;;5044371;28;20028;-72
2024/01/15 11:52:07;;;;;;;31.50;11.57;;;1.90;99.90;;;;;;5047269;28;20033;-72
2024/01/15 11:54:39;;;;;;;33.53;14.00;;;2.10;99.90;;;;;;5049342;28;20271;-71
2024/01/15 11:57:15;;;;;;;32.50;11.75;;;2.10;99.90;;;;;;5047822;28;20025;-70
2024/01/15 11:59:41;;;;;;;33.40;11.55;;;1.80;99.90;;;;;;5046103;28;20466;-71
2024/01/15 12:02:07;;;;;;;34.80;13.38;;;1.90;99.90;;;;;;5047745;28;20512;-69
2024/01/15 12:04:33;;;;;;;35.55;13.13;;;1.80;99.90;;;;;;5048188;28;20013;-72
2024/01/15 12:06:59;;;;;;;38.15;13.10;;;1.80;99.90;;;;;;5051290;28;20087;-72
2024/01/15 12:09:24;;;;;;;22.08;10.38;;;1.90;99.90;;;;;;5050892;28;20431;-72
2024/01/15 12:12:05;;;;;;;31.92;9.50;;;2.00;99.90;;;;;;5052483;28;20497;-73
2024/01/15 12:14:32;;;;;;;30.38;11.57;;;1.90;99.90;;;;;;5038944;28;20035;-73
2024/01/15 12:16:58;;;;;;;20.92;9.77;;;1.50;99.90;;;;;;5037151;28;20025;-74
2024/01/15 12:19:23;;;;;;;30.20;10.40;;;1.40;99.90;;;;;;5051348;28;20029;-73
2024/01/15 12:21:51;;;;;;;26.83;11.15;;;1.20;99.90;;;;;;5052707;28;20049;-74
2024/01/15 12:24:17;;;;;;;32.55;12.15;;;1.30;99.90;;;;;;5054073;28;20385;-73
2024/01/15 12:26:44;;;;;;;32.55;12.65;;;1.40;99.90;;;;;;5033057;28;20049;-72
2024/01/15 12:29:10;;;;;;;27.50;8.40;;;1.40;99.90;;;;;;5033897;28;20021;-74
2024/01/15 12:31:36;;;;;;;39.17;12.48;;;1.50;99.90;;;;;;5051488;28;20225;-75